Time;durP1;ratioP1;P1;durP2;ratioP2;P2;SDS_P1;SDS_P2;PMS_P1;PMS_P2;Temp;Humidity;BMP_temperature;BMP_pressure;BME280_temperature;BME280_humidity;BME280_pressure;Samples;Min_cycle;Max_cycle;Signal;HPM_P1;HPM_P2
2022/04/18 00:00:36;;;;;;;11.90;7.32;;;9.60;99.90;;;;;;5034702;28;20112;-51
2022/04/18 00:03:03;;;;;;;11.35;6.20;;;9.70;99.90;;;;;;5034139;28;20032;-55
2022/04/18 00:05:33;;;;;;;14.25;6.82;;;9.70;99.90;;;;;;5035038;28;20390;-53
2022/04/18 00:07:59;;;;;;;13.77;7.18;;;9.60;99.90;;;;;;5034937;28;20017;-54
2022/04/18 00:10:25;;;;;;;12.07;6.70;;;9.60;99.90;;;;;;5034911;28;20048;-54
2022/04/18 00:12:50;;;;;;;13.90;6.85;;;9.60;99.90;;;;;;5034787;28;20028;-55
2022/04/18 00:15:16;;;;;;;17.17;7.57;;;9.60;99.90;;;;;;5034631;28;20033;-56
2022/04/18 00:17:43;;;;;;;11.88;6.88;;;9.60;99.90;;;;;;5032176;28;20034;-53
2022/04/18 00:20:09;;;;;;;12.45;6.90;;;9.60;99.90;;;;;;5032133;28;20032;-53
2022/04/18 00:22:35;;;;;;;10.00;6.50;;;9.60;99.90;;;;;;5034513;28;20109;-52
2022/04/18 00:25:01;;;;;;;11.25;7.00;;;9.50;99.90;;;;;;5034448;28;20097;-55
2022/04/18 00:27:26;;;;;;;10.38;6.10;;;9.50;99.90;;;;;;5034358;28;20025;-56
2022/04/18 00:29:52;;;;;;;13.35;6.65;;;9.50;99.90;;;;;;5033134;28;20032;-52
2022/04/18 00:32:18;;;;;;;10.98;6.70;;;9.50;99.90;;;;;;5033398;28;20109;-56
2022/04/18 00:34:44;;;;;;;10.95;6.93;;;9.50;99.90;;;;;;5034180;28;20064;-51
2022/04/18 00:37:10;;;;;;;9.27;5.97;;;9.50;99.90;;;;;;5034378;28;20123;-56
2022/04/18 00:39:35;;;;;;;11.93;6.35;;;9.40;99.90;;;;;;5034310;28;20108;-53
2022/04/18 00:42:01;;;;;;;8.25;5.82;;;9.40;99.90;;;;;;5034236;28;20030;-52
2022/04/18 00:44:26;;;;;;;8.75;6.00;;;9.40;99.90;;;;;;5033995;28;20474;-55
2022/04/18 00:46:52;;;;;;;10.93;6.78;;;9.30;99.90;;;;;;5033810;28;20024;-55
2022/04/18 00:49:17;;;;;;;12.18;7.07;;;9.30;99.90;;;;;;5032085;28;20083;-51
2022/04/18 00:51:43;;;;;;;13.73;6.70;;;9.30;99.90;;;;;;5033956;28;20021;-54
2022/04/18 00:54:10;;;;;;;12.48;6.05;;;9.30;99.90;;;;;;5033672;28;20037;-54
2022/04/18 00:56:36;;;;;;;12.43;6.82;;;9.30;99.90;;;;;;5033747;28;20021;-56
2022/04/18 00:59:03;;;;;;;10.77;6.05;;;9.30;99.90;;;;;;5033952;28;20331;-55
2022/04/18 01:01:28;;;;;;;10.63;6.80;;;9.20;99.90;;;;;;5033836;28;20021;-54
2022/04/18 01:03:54;;;;;;;15.23;7.30;;;9.10;99.90;;;;;;5033479;28;20025;-55
2022/04/18 01:06:20;;;;;;;14.30;7.55;;;9.10;99.90;;;;;;5033905;28;20075;-55
2022/04/18 01:08:47;;;;;;;10.10;7.00;;;9.10;99.90;;;;;;5031836;28;20100;-56
2022/04/18 01:11:13;;;;;;;14.10;8.57;;;9.10;99.90;;;;;;5034373;28;20029;-55
2022/04/18 01:13:44;;;;;;;13.40;8.18;;;9.00;99.90;;;;;;5033868;28;20100;-54
2022/04/18 01:16:10;;;;;;;16.92;9.20;;;9.00;99.90;;;;;;5029348;28;20108;-55
2022/04/18 01:18:36;;;;;;;18.05;10.63;;;8.90;99.90;;;;;;5034849;28;20498;-55
2022/04/18 01:21:03;;;;;;;17.48;10.18;;;9.00;99.90;;;;;;5034314;28;20025;-56
2022/04/18 01:23:30;;;;;;;16.42;9.68;;;8.90;99.90;;;;;;5034391;28;20090;-53
2022/04/18 01:28:59;;;;;;;16.13;9.63;;;8.90;99.90;;;;;;5011872;28;20036;-55
2022/04/18 01:31:26;;;;;;;14.05;8.38;;;8.80;99.90;;;;;;5029424;28;20406;-55
2022/04/18 01:33:52;;;;;;;16.38;7.95;;;8.80;99.90;;;;;;5033882;28;20025;-52
2022/04/18 01:36:17;;;;;;;14.57;7.85;;;8.80;99.90;;;;;;5033994;28;20087;-52
2022/04/18 01:38:43;;;;;;;13.90;7.85;;;8.80;99.90;;;;;;5033824;28;20025;-55
2022/04/18 01:41:09;;;;;;;14.27;8.23;;;8.80;99.90;;;;;;5033675;28;20065;-51
2022/04/18 01:43:34;;;;;;;12.82;8.25;;;8.80;99.90;;;;;;5033932;28;20044;-52
2022/04/18 01:46:00;;;;;;;13.75;7.70;;;8.80;99.90;;;;;;5033724;28;20017;-54
2022/04/18 01:48:26;;;;;;;15.77;7.75;;;8.80;99.90;;;;;;5033975;28;20026;-54
2022/04/18 01:50:51;;;;;;;15.40;7.43;;;8.70;99.90;;;;;;5032269;28;20425;-53
2022/04/18 01:53:17;;;;;;;12.65;7.15;;;8.70;99.90;;;;;;5033562;28;20029;-53
2022/04/18 01:55:42;;;;;;;14.30;7.22;;;8.70;99.90;;;;;;5033467;28;20395;-54
2022/04/18 01:58:08;;;;;;;14.13;7.55;;;8.60;99.90;;;;;;5033605;28;20523;-51
2022/04/18 02:00:34;;;;;;;10.90;7.20;;;8.60;99.90;;;;;;5049884;22;20049;-49
2022/04/18 02:02:59;;;;;;;13.30;6.53;;;8.60;99.90;;;;;;5053722;28;20029;-48
2022/04/18 02:05:25;;;;;;;12.63;6.68;;;8.60;99.90;;;;;;5053912;28;20056;-47
2022/04/18 02:07:51;;;;;;;12.52;7.25;;;8.60;99.90;;;;;;5054177;28;20028;-47
2022/04/18 02:10:16;;;;;;;13.27;7.32;;;8.50;99.90;;;;;;5053348;28;20017;-49
2022/04/18 02:12:42;;;;;;;12.48;7.00;;;8.50;99.90;;;;;;5053347;28;20025;-47
2022/04/18 02:15:09;;;;;;;13.98;7.13;;;8.50;99.90;;;;;;5053421;28;20087;-49
2022/04/18 02:17:34;;;;;;;16.55;8.20;;;8.50;99.90;;;;;;5053306;28;20033;-47
2022/04/18 02:20:00;;;;;;;13.30;7.60;;;8.50;99.90;;;;;;5053196;28;20112;-48
2022/04/18 02:22:26;;;;;;;11.30;7.22;;;8.50;99.90;;;;;;5053102;28;20029;-47
2022/04/18 02:24:55;;;;;;;12.52;7.82;;;8.40;99.90;;;;;;5052672;28;20053;-47
2022/04/18 02:27:20;;;;;;;15.60;8.27;;;8.40;99.90;;;;;;5053151;28;20028;-47
2022/04/18 02:29:46;;;;;;;12.75;7.97;;;8.40;99.90;;;;;;5053157;28;20033;-49
2022/04/18 02:34:55;;;;;;;16.77;8.75;;;8.40;99.90;;;;;;5053181;28;20051;-50
2022/04/18 02:37:21;;;;;;;15.45;8.20;;;8.30;99.90;;;;;;5051548;28;20128;-46
2022/04/18 02:39:46;;;;;;;13.82;7.55;;;8.30;99.90;;;;;;5052902;28;20108;-53
2022/04/18 02:42:12;;;;;;;13.82;7.97;;;8.30;99.90;;;;;;5053514;28;20147;-48
2022/04/18 02:44:38;;;;;;;14.48;7.63;;;8.30;99.90;;;;;;5053098;28;20029;-47
2022/04/18 02:47:03;;;;;;;10.48;7.15;;;8.20;99.90;;;;;;5053588;28;20036;-49
2022/04/18 02:49:30;;;;;;;12.88;6.80;;;8.20;99.90;;;;;;5051498;28;20465;-48
2022/04/18 02:51:56;;;;;;;14.85;7.57;;;8.20;99.90;;;;;;5053115;28;20033;-48
2022/04/18 02:54:22;;;;;;;14.45;7.32;;;8.20;99.90;;;;;;5051286;28;20028;-52
2022/04/18 02:56:47;;;;;;;12.57;7.13;;;8.20;99.90;;;;;;5052886;28;20035;-47
2022/04/18 02:59:13;;;;;;;11.95;7.47;;;8.20;99.90;;;;;;5053098;28;20021;-48
2022/04/18 03:01:38;;;;;;;16.73;7.18;;;8.20;99.90;;;;;;5052639;28;20512;-49
2022/04/18 03:04:04;;;;;;;12.85;7.18;;;8.10;99.90;;;;;;5051584;28;20041;-47
2022/04/18 03:06:30;;;;;;;12.15;7.90;;;8.20;99.90;;;;;;5052117;28;20029;-46
2022/04/18 03:08:55;;;;;;;17.92;9.10;;;8.10;99.90;;;;;;5052758;28;20029;-47
2022/04/18 03:11:21;;;;;;;17.08;8.65;;;8.10;99.90;;;;;;5052847;28;20029;-51
2022/04/18 03:13:47;;;;;;;16.52;9.52;;;8.10;99.90;;;;;;5052231;28;20078;-48
2022/04/18 03:16:13;;;;;;;14.95;8.52;;;8.10;99.90;;;;;;5052322;28;20025;-47
2022/04/18 03:18:39;;;;;;;16.08;8.60;;;8.00;99.90;;;;;;5052406;28;20540;-48
2022/04/18 03:21:04;;;;;;;18.55;8.43;;;8.00;99.90;;;;;;5052385;28;20037;-47
2022/04/18 03:23:31;;;;;;;12.85;8.60;;;8.10;99.90;;;;;;5052480;28;20092;-48
2022/04/18 03:25:57;;;;;;;12.57;7.50;;;8.00;99.90;;;;;;5052857;28;20377;-48
2022/04/18 03:28:23;;;;;;;13.30;7.88;;;8.00;99.90;;;;;;5052391;28;20029;-47
2022/04/18 03:30:49;;;;;;;11.70;6.75;;;8.00;99.90;;;;;;5052256;28;20449;-52
2022/04/18 03:33:15;;;;;;;13.98;7.57;;;8.00;99.90;;;;;;5050847;28;20033;-47
2022/04/18 03:39:50;;;;;;;12.85;6.85;;;7.90;99.90;;;;;;5051451;28;20534;-48
2022/04/18 03:41:16;;;;;;;11.32;6.47;;;7.80;99.90;;;;;;5052273;28;20032;-49
2022/04/18 03:43:42;;;;;;;11.27;6.75;;;7.80;99.90;;;;;;5052168;28;20029;-49
2022/04/18 03:46:08;;;;;;;11.90;6.90;;;7.80;99.90;;;;;;5052490;28;20063;-47
2022/04/18 03:48:33;;;;;;;13.57;6.43;;;7.80;99.90;;;;;;5052143;28;20063;-49
2022/04/18 03:50:59;;;;;;;12.82;7.13;;;7.80;99.90;;;;;;5052054;28;20036;-48
2022/04/18 03:53:24;;;;;;;11.55;6.55;;;7.80;99.90;;;;;;5052093;28;20071;-47
2022/04/18 03:55:50;;;;;;;12.85;6.85;;;7.80;99.90;;;;;;5054252;28;20031;-47
2022/04/18 03:58:16;;;;;;;11.77;6.72;;;7.70;99.90;;;;;;5055685;28;20047;-47
2022/04/18 04:00:44;;;;;;;12.90;6.95;;;7.80;99.90;;;;;;5054275;28;20033;-48
2022/04/18 04:03:11;;;;;;;11.60;6.32;;;7.80;99.90;;;;;;5055603;28;20051;-50
2022/04/18 04:05:39;;;;;;;14.27;6.90;;;7.70;99.90;;;;;;5055615;28;20033;-48
2022/04/18 04:08:05;;;;;;;13.38;6.72;;;7.70;99.90;;;;;;5054604;28;20051;-46
2022/04/18 04:10:31;;;;;;;13.75;6.82;;;7.70;99.90;;;;;;5054313;28;20029;-47
2022/04/18 04:12:57;;;;;;;13.82;6.30;;;7.70;99.90;;;;;;5056265;28;20036;-48
2022/04/18 04:15:22;;;;;;;13.35;6.63;;;7.70;99.90;;;;;;5055503;28;20078;-49
2022/04/18 04:17:48;;;;;;;12.68;6.57;;;7.70;99.90;;;;;;5055662;28;20470;-47
2022/04/18 04:20:14;;;;;;;14.13;6.97;;;7.70;99.90;;;;;;5054178;28;20028;-48
2022/04/18 04:22:44;;;;;;;13.95;7.30;;;7.70;99.90;;;;;;5055669;28;20025;-49
2022/04/18 04:25:09;;;;;;;13.85;6.75;;;7.70;99.90;;;;;;5055563;28;20025;-49
2022/04/18 04:27:35;;;;;;;13.25;7.32;;;7.60;99.90;;;;;;5054406;28;20150;-48
2022/04/18 04:30:00;;;;;;;14.65;6.63;;;7.60;99.90;;;;;;5055353;28;20047;-47
2022/04/18 04:32:26;;;;;;;11.32;6.60;;;7.60;99.90;;;;;;5055172;28;20036;-48
2022/04/18 04:34:51;;;;;;;12.25;6.88;;;7.60;99.90;;;;;;5053870;28;20025;-47
2022/04/18 04:37:17;;;;;;;12.93;6.50;;;7.70;99.90;;;;;;5055984;28;20032;-47
2022/04/18 04:39:43;;;;;;;13.48;7.32;;;7.70;99.90;;;;;;5056206;28;20017;-49
2022/04/18 04:42:09;;;;;;;13.00;7.22;;;7.60;99.90;;;;;;5056332;28;20033;-47
2022/04/18 04:44:34;;;;;;;18.80;7.75;;;7.60;99.90;;;;;;5056475;28;20037;-50
2022/04/18 04:47:00;;;;;;;16.13;6.90;;;7.60;99.90;;;;;;5056527;28;20067;-48
2022/04/18 04:49:25;;;;;;;11.68;7.47;;;7.70;99.90;;;;;;5055428;28;20021;-49
2022/04/18 04:51:51;;;;;;;12.88;7.40;;;7.60;99.90;;;;;;5057289;28;20194;-46
2022/04/18 04:54:16;;;;;;;11.52;6.95;;;7.50;99.90;;;;;;5057040;28;20021;-47
2022/04/18 04:56:42;;;;;;;12.98;6.57;;;7.50;99.90;;;;;;5057040;28;20062;-49
2022/04/18 04:59:08;;;;;;;13.13;7.28;;;7.50;99.90;;;;;;5055289;28;20390;-47
2022/04/18 05:01:33;;;;;;;13.93;7.00;;;7.50;99.90;;;;;;5056715;28;20044;-47
2022/04/18 05:03:59;;;;;;;15.98;7.75;;;7.60;99.90;;;;;;5055884;28;20386;-48
2022/04/18 05:06:25;;;;;;;14.35;7.55;;;7.50;99.90;;;;;;5054374;28;20540;-49
2022/04/18 05:08:50;;;;;;;17.67;7.45;;;7.50;99.90;;;;;;5054549;28;20029;-50
2022/04/18 05:11:16;;;;;;;10.88;6.55;;;7.60;99.90;;;;;;5054402;28;20033;-46
2022/04/18 05:13:42;;;;;;;13.45;7.88;;;7.50;99.90;;;;;;5054227;28;20096;-47
2022/04/18 05:16:07;;;;;;;12.15;6.80;;;7.60;99.90;;;;;;5054469;28;20029;-46
2022/04/18 05:18:33;;;;;;;14.05;7.32;;;7.60;99.90;;;;;;5054079;28;20027;-51
2022/04/18 05:20:58;;;;;;;13.27;7.20;;;7.60;99.90;;;;;;5052840;28;20049;-48
2022/04/18 05:23:24;;;;;;;11.40;7.03;;;7.60;99.90;;;;;;5053772;28;20379;-50
2022/04/18 05:25:49;;;;;;;13.93;7.72;;;7.60;99.90;;;;;;5053581;28;20029;-47
2022/04/18 05:28:15;;;;;;;17.10;8.23;;;7.60;99.90;;;;;;5054588;28;20025;-50
2022/04/18 05:30:41;;;;;;;17.25;8.15;;;7.70;99.90;;;;;;5053926;28;20029;-49
2022/04/18 05:33:07;;;;;;;12.23;6.97;;;7.70;99.90;;;;;;5054476;28;20035;-53
2022/04/18 05:35:33;;;;;;;13.00;7.47;;;7.70;99.90;;;;;;5047545;28;20025;-47
2022/04/18 05:37:59;;;;;;;16.35;7.70;;;7.70;99.90;;;;;;5043554;28;20026;-48
2022/04/18 05:40:24;;;;;;;18.08;8.88;;;7.70;99.90;;;;;;5034030;28;20024;-50
2022/04/18 05:42:51;;;;;;;11.00;7.22;;;7.80;99.90;;;;;;5034380;28;20167;-47
2022/04/18 05:45:17;;;;;;;13.98;7.35;;;7.80;99.90;;;;;;5034134;28;20033;-47
2022/04/18 05:47:43;;;;;;;14.77;8.00;;;7.80;99.90;;;;;;5033922;28;20026;-48
2022/04/18 05:50:09;;;;;;;13.70;7.55;;;7.80;99.90;;;;;;5034026;28;20536;-48
2022/04/18 05:52:34;;;;;;;11.95;7.88;;;7.90;99.90;;;;;;5032448;28;20037;-51
2022/04/18 05:55:00;;;;;;;13.32;8.27;;;8.00;99.90;;;;;;5033646;28;20108;-47
2022/04/18 05:57:26;;;;;;;17.23;9.35;;;8.10;99.90;;;;;;5034112;28;20057;-47
2022/04/18 05:59:51;;;;;;;15.15;8.38;;;8.10;99.90;;;;;;5033186;28;20033;-50
2022/04/18 06:02:18;;;;;;;17.75;8.90;;;8.20;99.90;;;;;;5033364;28;20037;-50
2022/04/18 06:04:44;;;;;;;18.45;8.82;;;8.20;99.90;;;;;;5033400;28;20036;-50
2022/04/18 06:07:09;;;;;;;16.42;8.45;;;8.30;99.90;;;;;;5033630;28;20025;-47
2022/04/18 06:09:35;;;;;;;16.25;8.30;;;8.30;99.90;;;;;;5033557;28;20502;-47
2022/04/18 06:12:01;;;;;;;16.83;8.80;;;8.40;99.90;;;;;;5033497;28;20359;-47
2022/04/18 06:14:27;;;;;;;17.88;8.93;;;8.50;99.90;;;;;;5033672;28;20029;-47
2022/04/18 06:16:52;;;;;;;16.77;8.25;;;8.60;99.90;;;;;;5033414;28;20068;-49
2022/04/18 06:19:18;;;;;;;16.25;7.85;;;8.70;99.90;;;;;;5033214;28;20067;-50
2022/04/18 06:21:44;;;;;;;16.98;9.18;;;8.70;99.90;;;;;;5033445;28;20498;-48
2022/04/18 06:24:09;;;;;;;15.10;8.38;;;8.80;99.90;;;;;;5033561;28;20044;-47
2022/04/18 06:26:36;;;;;;;15.05;9.05;;;8.90;99.90;;;;;;5033211;28;20486;-47
2022/04/18 06:29:02;;;;;;;15.10;8.98;;;9.00;99.90;;;;;;5033094;28;20026;-47
2022/04/18 06:31:27;;;;;;;17.60;9.32;;;9.00;99.90;;;;;;5033308;28;20549;-46
2022/04/18 06:33:53;;;;;;;16.05;9.07;;;9.10;99.90;;;;;;5033038;28;20036;-47
2022/04/18 06:36:18;;;;;;;16.25;9.13;;;9.20;99.90;;;;;;5033158;28;20407;-47
2022/04/18 06:38:44;;;;;;;13.63;8.80;;;9.30;99.90;;;;;;5033005;28;20108;-47
2022/04/18 06:41:09;;;;;;;13.27;9.40;;;9.40;99.90;;;;;;5032973;28;20139;-47
2022/04/18 06:43:36;;;;;;;13.48;8.35;;;9.50;99.90;;;;;;5033280;28;20487;-47
2022/04/18 06:46:01;;;;;;;16.45;8.82;;;9.70;99.90;;;;;;5033436;28;20036;-48
2022/04/18 06:48:27;;;;;;;19.55;9.07;;;9.80;99.90;;;;;;5033070;28;20021;-48
2022/04/18 06:50:53;;;;;;;16.70;9.73;;;9.90;99.90;;;;;;5033181;28;20025;-47
2022/04/18 06:53:19;;;;;;;17.73;9.15;;;10.00;99.90;;;;;;5032832;28;20482;-47
2022/04/18 06:58:30;;;;;;;13.02;8.20;;;10.20;99.90;;;;;;5033192;28;20391;-47
2022/04/18 07:00:55;;;;;;;13.77;8.00;;;10.30;99.90;;;;;;5032950;28;20066;-49
2022/04/18 07:03:21;;;;;;;13.60;8.05;;;10.40;99.90;;;;;;5032888;28;20057;-47
2022/04/18 07:05:48;;;;;;;14.35;7.75;;;10.50;99.90;;;;;;5032862;28;20033;-47
2022/04/18 07:08:14;;;;;;;13.95;7.50;;;10.60;99.90;;;;;;5031813;28;20075;-47
2022/04/18 07:10:39;;;;;;;13.07;7.35;;;10.80;99.90;;;;;;5032748;28;20057;-48
2022/04/18 07:13:05;;;;;;;12.52;7.22;;;10.90;99.90;;;;;;5032808;28;20051;-47
2022/04/18 07:15:32;;;;;;;14.95;7.43;;;11.00;99.90;;;;;;5032892;28;20022;-49
2022/04/18 07:17:58;;;;;;;13.23;7.22;;;11.20;99.90;;;;;;5032930;28;20033;-47
2022/04/18 07:20:23;;;;;;;13.15;8.20;;;11.30;99.90;;;;;;5032665;28;20548;-51
2022/04/18 07:22:49;;;;;;;15.35;8.18;;;11.40;99.90;;;;;;5031312;28;20032;-48
2022/04/18 07:25:15;;;;;;;12.35;7.38;;;11.50;99.90;;;;;;5032554;28;20076;-48
2022/04/18 07:27:41;;;;;;;16.00;8.18;;;11.60;99.90;;;;;;5033020;28;20034;-48
2022/04/18 07:30:08;;;;;;;12.38;7.25;;;11.70;99.90;;;;;;5032955;28;20434;-51
2022/04/18 07:32:39;;;;;;;17.63;7.88;;;11.90;99.90;;;;;;5036378;28;20029;-47
2022/04/18 07:35:05;;;;;;;11.85;7.20;;;12.00;99.90;;;;;;5036367;28;20026;-47
2022/04/18 07:37:30;;;;;;;10.85;6.43;;;12.20;99.90;;;;;;5036121;28;20032;-45
2022/04/18 07:39:56;;;;;;;14.65;7.10;;;12.20;99.90;;;;;;5035963;28;20026;-50
2022/04/18 07:42:21;;;;;;;11.48;6.28;;;12.40;99.90;;;;;;5036069;28;20037;-49
2022/04/18 07:44:47;;;;;;;12.30;6.43;;;12.50;99.90;;;;;;5036007;28;20021;-47
2022/04/18 07:47:12;;;;;;;10.48;6.38;;;12.50;99.90;;;;;;5036323;28;20029;-47
2022/04/18 07:49:38;;;;;;;11.50;6.70;;;12.60;99.90;;;;;;5035814;28;20041;-47
2022/04/18 07:52:04;;;;;;;9.80;6.15;;;12.70;99.90;;;;;;5036028;28;20048;-47
2022/04/18 07:54:29;;;;;;;11.82;6.50;;;12.90;99.90;;;;;;5035992;28;20390;-47
2022/04/18 07:56:55;;;;;;;10.65;6.32;;;13.00;99.90;;;;;;5036329;28;20106;-47
2022/04/18 07:59:22;;;;;;;12.30;6.97;;;13.00;99.90;;;;;;5036145;28;20049;-46
2022/04/18 08:01:47;;;;;;;10.75;6.35;;;13.20;99.90;;;;;;5035767;28;20045;-50
2022/04/18 08:04:13;;;;;;;11.35;5.85;;;13.30;99.90;;;;;;5035924;28;20363;-49
2022/04/18 08:06:38;;;;;;;10.98;6.40;;;13.50;99.90;;;;;;5035928;28;20387;-51
2022/04/18 08:09:04;;;;;;;10.35;5.63;;;13.60;99.90;;;;;;5035651;28;20053;-46
2022/04/18 08:11:30;;;;;;;12.35;6.90;;;13.70;99.90;;;;;;5035809;28;20025;-49
2022/04/18 08:13:55;;;;;;;12.32;7.35;;;13.80;99.90;;;;;;5035972;28;20022;-47
2022/04/18 08:16:21;;;;;;;12.27;6.88;;;13.90;99.90;;;;;;5034861;28;20017;-46
2022/04/18 08:18:47;;;;;;;12.27;6.00;;;13.90;99.90;;;;;;5049645;23;20114;-54
2022/04/18 08:21:17;;;;;;;9.13;5.55;;;14.00;99.90;;;;;;5035002;28;20033;-54
2022/04/18 08:23:47;;;;;;;10.88;6.07;;;14.00;99.90;;;;;;5035871;28;20099;-55
2022/04/18 08:26:13;;;;;;;8.97;5.80;;;14.10;99.90;;;;;;5035495;28;20105;-54
2022/04/18 08:28:40;;;;;;;11.73;6.18;;;14.30;99.90;;;;;;5035528;28;20682;-54
2022/04/18 08:31:06;;;;;;;9.52;5.80;;;14.40;99.90;;;;;;5036397;28;20386;-51
2022/04/18 08:33:32;;;;;;;11.27;5.35;;;14.30;99.90;;;;;;5035590;28;20029;-52
2022/04/18 08:35:58;;;;;;;8.15;5.30;;;14.50;99.90;;;;;;5035635;28;20104;-52
2022/04/18 08:38:25;;;;;;;9.63;5.45;;;14.60;99.90;;;;;;5035188;28;20061;-53
2022/04/18 08:40:51;;;;;;;8.73;5.45;;;14.70;99.90;;;;;;5034556;28;20021;-50
2022/04/18 08:43:17;;;;;;;7.68;5.30;;;14.80;99.20;;;;;;5035083;28;20418;-54
2022/04/18 08:45:43;;;;;;;7.32;4.90;;;14.90;98.40;;;;;;5035403;28;20025;-55
2022/04/18 08:53:38;;;;;;;8.48;4.85;;;15.20;95.70;;;;;;5035445;28;20036;-53
2022/04/18 08:56:05;;;;;;;8.18;5.22;;;15.10;95.50;;;;;;5034945;28;20030;-53
2022/04/18 08:58:30;;;;;;;9.60;5.53;;;15.20;95.40;;;;;;5034884;28;20025;-51
2022/04/18 09:00:59;;;;;;;10.45;5.60;;;15.20;95.80;;;;;;5031887;28;20531;-56
2022/04/18 09:03:24;;;;;;;9.65;4.72;;;15.30;95.20;;;;;;5034735;28;20033;-54
2022/04/18 09:06:12;;;;;;;8.27;4.85;;;15.40;94.30;;;;;;5034713;28;20375;-54
2022/04/18 09:08:47;;;;;;;6.72;4.30;;;15.40;93.50;;;;;;5034698;28;20116;-56
2022/04/18 09:11:26;;;;;;;9.27;4.80;;;15.50;92.40;;;;;;5034709;28;20099;-55
2022/04/18 09:13:57;;;;;;;8.52;5.05;;;15.60;92.40;;;;;;5034742;28;20029;-55
2022/04/18 09:16:28;;;;;;;9.68;5.55;;;15.60;92.00;;;;;;5034820;28;20413;-53
2022/04/18 09:19:13;;;;;;;6.80;4.50;;;15.70;92.20;;;;;;5034463;28;20032;-53
2022/04/18 09:21:58;;;;;;;8.73;4.78;;;15.70;91.30;;;;;;5034288;28;20192;-51
2022/04/18 09:24:32;;;;;;;7.45;4.55;;;15.80;91.10;;;;;;5031472;28;20088;-52
2022/04/18 09:27:02;;;;;;;10.02;5.45;;;15.90;90.90;;;;;;5032303;28;20029;-52
2022/04/18 09:29:31;;;;;;;8.27;4.72;;;15.90;90.80;;;;;;5032551;28;20029;-54
2022/04/18 09:31:58;;;;;;;7.38;4.32;;;15.90;90.70;;;;;;5033873;28;20116;-55
2022/04/18 09:34:24;;;;;;;7.35;4.88;;;16.00;90.40;;;;;;5034290;28;20032;-52
2022/04/18 09:37:12;;;;;;;7.32;4.80;;;16.00;90.10;;;;;;5034096;28;20390;-52
2022/04/18 09:39:41;;;;;;;7.30;3.85;;;16.00;89.80;;;;;;5034094;28;20025;-55
2022/04/18 09:42:08;;;;;;;6.28;4.15;;;16.10;89.20;;;;;;5034203;28;20032;-53
2022/04/18 09:44:33;;;;;;;6.93;4.50;;;16.10;89.30;;;;;;5034370;28;20124;-55
2022/04/18 09:46:59;;;;;;;6.50;4.38;;;16.20;88.70;;;;;;5033978;28;20104;-53
2022/04/18 09:49:36;;;;;;;8.07;4.75;;;16.20;88.10;;;;;;5034042;28;20438;-55
2022/04/18 09:52:02;;;;;;;7.18;4.00;;;16.20;87.80;;;;;;5033893;28;20026;-52
2022/04/18 09:54:31;;;;;;;8.32;4.25;;;16.30;88.00;;;;;;5033504;28;20024;-51
2022/04/18 09:57:06;;;;;;;7.25;4.90;;;16.30;86.10;;;;;;5034077;28;20061;-54
2022/04/18 09:59:32;;;;;;;7.82;4.35;;;16.20;86.70;;;;;;5033864;28;20490;-51
2022/04/18 10:01:59;;;;;;;5.38;3.83;;;16.20;86.40;;;;;;5037391;28;20092;-51
2022/04/18 10:04:25;;;;;;;6.22;3.58;;;16.40;84.60;;;;;;5035594;28;20064;-51
2022/04/18 10:06:58;;;;;;;6.32;3.58;;;16.50;82.70;;;;;;5035865;28;20061;-51
2022/04/18 10:09:24;;;;;;;4.50;3.38;;;16.50;83.30;;;;;;5034001;28;20075;-52
2022/04/18 10:11:52;;;;;;;6.38;3.72;;;16.50;82.30;;;;;;5033209;28;20104;-52
2022/04/18 10:14:18;;;;;;;5.65;2.88;;;16.50;82.50;;;;;;5015510;28;20399;-57
2022/04/18 10:16:45;;;;;;;3.88;2.80;;;16.60;78.90;;;;;;5033117;28;20028;-56
2022/04/18 10:19:38;;;;;;;5.07;3.35;;;16.60;78.60;;;;;;5031507;28;20025;-57
2022/04/18 10:22:51;;;;;;;6.00;3.47;;;16.80;81.10;;;;;;5033584;28;20041;-56
2022/04/18 10:25:33;;;;;;;6.13;3.60;;;16.90;78.70;;;;;;5033986;28;20026;-55
2022/04/18 10:28:08;;;;;;;5.97;3.45;;;17.00;77.80;;;;;;5033472;28;20052;-57
2022/04/18 10:31:01;;;;;;;4.68;3.20;;;17.00;76.70;;;;;;5033482;28;20021;-57
2022/04/18 10:33:27;;;;;;;7.30;3.20;;;17.20;77.20;;;;;;5033783;28;20475;-57
2022/04/18 10:36:04;;;;;;;6.32;3.92;;;17.30;74.80;;;;;;5033248;28;20052;-57
2022/04/18 10:38:37;;;;;;;8.68;4.30;;;17.20;74.80;;;;;;5033445;28;20079;-57
2022/04/18 10:41:42;;;;;;;7.20;3.95;;;17.20;74.20;;;;;;5033397;28;20029;-57
2022/04/18 10:44:17;;;;;;;4.90;3.08;;;17.10;75.80;;;;;;5033447;28;20115;-56
2022/04/18 10:47:03;;;;;;;5.43;3.53;;;17.10;73.10;;;;;;5033305;28;20108;-55
2022/04/18 10:49:33;;;;;;;9.38;3.55;;;17.20;73.30;;;;;;5032994;28;20097;-57
2022/04/18 10:52:09;;;;;;;5.75;3.53;;;17.30;72.30;;;;;;5033214;28;20117;-57
2022/04/18 10:54:35;;;;;;;4.95;3.33;;;17.30;68.30;;;;;;5033064;28;20033;-57
2022/04/18 10:57:10;;;;;;;6.18;3.58;;;17.40;68.10;;;;;;5033273;28;20034;-57
2022/04/18 10:59:38;;;;;;;4.60;3.22;;;17.40;68.90;;;;;;5033482;28;20104;-58
2022/04/18 11:02:06;;;;;;;7.43;3.63;;;17.50;70.10;;;;;;5033068;28;20039;-57
2022/04/18 11:04:39;;;;;;;5.55;2.80;;;17.50;68.90;;;;;;5035052;28;20071;-57
2022/04/18 11:07:07;;;;;;;5.13;3.03;;;17.70;68.60;;;;;;5037178;28;20113;-55
2022/04/18 11:09:36;;;;;;;6.78;3.85;;;17.70;67.30;;;;;;5028467;28;20068;-57
2022/04/18 11:12:20;;;;;;;5.68;3.80;;;17.80;66.90;;;;;;5017347;28;20108;-56
2022/04/18 11:15:02;;;;;;;4.47;2.97;;;17.80;68.00;;;;;;5017451;28;20022;-55
2022/04/18 11:17:38;;;;;;;5.80;3.95;;;17.90;66.70;;;;;;5017063;28;20018;-55
2022/04/18 11:20:33;;;;;;;6.72;3.15;;;17.90;65.10;;;;;;5016954;28;20042;-53
2022/04/18 11:23:18;;;;;;;5.43;3.28;;;18.00;65.10;;;;;;5030420;28;20125;-55
2022/04/18 11:25:50;;;;;;;5.70;3.28;;;18.10;64.30;;;;;;5036998;28;20160;-57
2022/04/18 11:28:17;;;;;;;5.53;3.10;;;18.10;64.10;;;;;;5036533;28;20048;-58
2022/04/18 11:30:43;;;;;;;5.13;2.92;;;18.00;62.20;;;;;;5024866;28;20025;-56
2022/04/18 11:33:08;;;;;;;4.53;2.47;;;17.90;61.40;;;;;;5035389;28;20045;-58
2022/04/18 11:35:34;;;;;;;4.13;2.75;;;17.80;59.80;;;;;;5036542;28;20062;-58
2022/04/18 11:38:10;;;;;;;10.85;4.57;;;17.80;60.60;;;;;;5036387;28;20104;-57
2022/04/18 11:40:37;;;;;;;6.88;4.18;;;17.90;62.40;;;;;;5036329;28;20036;-54
2022/04/18 11:43:10;;;;;;;5.88;3.40;;;17.90;61.30;;;;;;5037198;28;20029;-56
2022/04/18 11:45:36;;;;;;;5.50;2.97;;;17.90;63.40;;;;;;5036538;28;20022;-57
2022/04/18 11:48:04;;;;;;;10.07;3.70;;;18.00;62.60;;;;;;5036440;28;20095;-57
2022/04/18 11:50:30;;;;;;;4.25;2.75;;;18.00;60.80;;;;;;5036265;28;20036;-56
2022/04/18 11:53:07;;;;;;;5.15;2.70;;;18.10;61.20;;;;;;5035917;28;20120;-56
2022/04/18 11:55:43;;;;;;;6.32;3.63;;;18.20;60.10;;;;;;5036487;28;20030;-57
2022/04/18 11:58:10;;;;;;;5.57;3.30;;;18.20;61.40;;;;;;5036232;28;20116;-56
2022/04/18 12:08:50;;;;;;;4.88;2.75;;;18.50;58.90;;;;;;5024844;28;20033;-57
2022/04/18 12:11:16;;;;;;;6.47;2.95;;;18.50;58.00;;;;;;5016414;28;20053;-59
2022/04/18 12:13:46;;;;;;;6.78;3.15;;;18.50;58.10;;;;;;5016354;28;20038;-56
2022/04/18 12:16:15;;;;;;;4.30;3.03;;;18.50;59.10;;;;;;5013933;28;20483;-56
2022/04/18 12:18:41;;;;;;;6.25;3.22;;;18.60;58.70;;;;;;5015815;28;20038;-57
2022/04/18 12:21:07;;;;;;;5.80;3.20;;;18.60;59.50;;;;;;5015936;28;20524;-57
2022/04/18 12:23:32;;;;;;;5.97;3.28;;;18.70;59.30;;;;;;5015927;28;20026;-57
2022/04/18 12:25:59;;;;;;;5.95;3.53;;;18.70;59.20;;;;;;5016033;28;20383;-56
2022/04/18 12:28:28;;;;;;;8.23;3.38;;;18.70;58.80;;;;;;5015887;28;20105;-54
2022/04/18 12:30:55;;;;;;;6.30;3.42;;;18.60;59.40;;;;;;5015803;28;20093;-56
2022/04/18 12:33:23;;;;;;;6.18;3.15;;;18.60;59.00;;;;;;5016799;28;20022;-57
2022/04/18 12:35:52;;;;;;;6.60;3.58;;;18.60;58.30;;;;;;5016526;28;20030;-57
2022/04/18 12:38:20;;;;;;;6.40;3.92;;;18.50;59.00;;;;;;5016626;28;20535;-54
2022/04/18 12:40:53;;;;;;;4.22;2.85;;;18.40;58.90;;;;;;5016818;28;20141;-57
2022/04/18 12:43:19;;;;;;;12.27;3.30;;;18.30;59.30;;;;;;5016780;28;20026;-56
2022/04/18 12:45:47;;;;;;;5.45;3.20;;;18.40;59.70;;;;;;5016668;28;20382;-56
2022/04/18 12:48:13;;;;;;;5.03;3.22;;;18.50;60.70;;;;;;5016581;28;20030;-60
2022/04/18 12:50:40;;;;;;;6.38;3.63;;;18.60;60.00;;;;;;5016475;28;20471;-56
2022/04/18 12:53:06;;;;;;;7.00;3.38;;;18.70;59.40;;;;;;5022321;28;20029;-55
2022/04/18 12:55:31;;;;;;;5.35;3.85;;;18.70;59.50;;;;;;5033355;28;20103;-57
2022/04/18 12:58:01;;;;;;;8.45;3.25;;;18.70;59.70;;;;;;5034405;28;20018;-57
2022/04/18 13:00:35;;;;;;;6.50;3.25;;;18.80;59.30;;;;;;5033657;28;20064;-57
2022/04/18 13:03:03;;;;;;;5.10;2.90;;;18.90;59.40;;;;;;5032391;28;20034;-56
2022/04/18 13:05:30;;;;;;;5.00;3.47;;;18.90;58.80;;;;;;5034284;28;20025;-58
2022/04/18 13:08:05;;;;;;;6.20;3.33;;;19.00;58.70;;;;;;5031533;28;20029;-58
2022/04/18 13:10:33;;;;;;;4.57;3.13;;;18.90;58.80;;;;;;5034626;28;20021;-57
2022/04/18 13:13:13;;;;;;;6.10;3.58;;;18.90;59.10;;;;;;5034159;28;20025;-56